sensor_id;sensor_type;location;lat;lon;timestamp;P1;durP1;ratioP1;P2;durP2;ratioP2
14272;SDS011;7220;49.450;11.052;2022-11-14T00:01:59;27.33;;;19.35;;
14272;SDS011;7220;49.450;11.052;2022-11-14T00:05:59;26.88;;;18.77;;
14272;SDS011;7220;49.450;11.052;2022-11-14T00:10:05;26.77;;;18.65;;
14272;SDS011;7220;49.450;11.052;2022-11-14T00:14:05;27.60;;;19.60;;
14272;SDS011;7220;49.450;11.052;2022-11-14T00:18:06;26.70;;;18.65;;
14272;SDS011;7220;49.450;11.052;2022-11-14T00:22:06;26.83;;;19.67;;
14272;SDS011;7220;49.450;11.052;2022-11-14T00:26:06;28.15;;;20.17;;
14272;SDS011;7220;49.450;11.052;2022-11-14T00:30:07;26.35;;;18.80;;
14272;SDS011;7220;49.450;11.052;2022-11-14T00:34:07;27.70;;;19.10;;
14272;SDS011;7220;49.450;11.052;2022-11-14T00:38:08;26.58;;;19.20;;
14272;SDS011;7220;49.450;11.052;2022-11-14T00:42:08;31.25;;;19.98;;
14272;SDS011;7220;49.450;11.052;2022-11-14T00:46:08;28.52;;;20.17;;
14272;SDS011;7220;49.450;11.052;2022-11-14T00:50:08;29.85;;;19.60;;
14272;SDS011;7220;49.450;11.052;2022-11-14T00:54:09;27.45;;;19.15;;
14272;SDS011;7220;49.450;11.052;2022-11-14T00:58:09;30.08;;;20.20;;
14272;SDS011;7220;49.450;11.052;2022-11-14T01:02:10;26.55;;;18.35;;
14272;SDS011;7220;49.450;11.052;2022-11-14T01:06:10;28.48;;;19.70;;
14272;SDS011;7220;49.450;11.052;2022-11-14T01:10:10;30.45;;;20.77;;
14272;SDS011;7220;49.450;11.052;2022-11-14T01:14:11;27.02;;;19.83;;
14272;SDS011;7220;49.450;11.052;2022-11-14T01:18:13;27.40;;;19.42;;
14272;SDS011;7220;49.450;11.052;2022-11-14T01:22:17;28.05;;;18.92;;
14272;SDS011;7220;49.450;11.052;2022-11-14T01:26:17;28.02;;;19.17;;
14272;SDS011;7220;49.450;11.052;2022-11-14T01:30:17;31.00;;;20.17;;
14272;SDS011;7220;49.450;11.052;2022-11-14T01:34:18;26.23;;;19.45;;
14272;SDS011;7220;49.450;11.052;2022-11-14T01:38:18;27.17;;;18.63;;
14272;SDS011;7220;49.450;11.052;2022-11-14T01:42:18;27.23;;;19.60;;
14272;SDS011;7220;49.450;11.052;2022-11-14T01:46:22;29.25;;;18.52;;
14272;SDS011;7220;49.450;11.052;2022-11-14T01:50:27;29.17;;;19.27;;
14272;SDS011;7220;49.450;11.052;2022-11-14T01:54:28;28.67;;;19.77;;
14272;SDS011;7220;49.450;11.052;2022-11-14T01:58:32;27.45;;;19.00;;
14272;SDS011;7220;49.450;11.052;2022-11-14T02:02:35;28.05;;;19.55;;
14272;SDS011;7220;49.450;11.052;2022-11-14T02:06:37;25.48;;;18.70;;
14272;SDS011;7220;49.450;11.052;2022-11-14T02:10:39;28.92;;;19.85;;
14272;SDS011;7220;49.450;11.052;2022-11-14T02:14:40;28.27;;;19.13;;
14272;SDS011;7220;49.450;11.052;2022-11-14T02:18:44;29.13;;;19.45;;
14272;SDS011;7220;49.450;11.052;2022-11-14T02:22:44;26.63;;;18.33;;
14272;SDS011;7220;49.450;11.052;2022-11-14T02:26:44;27.23;;;18.50;;
14272;SDS011;7220;49.450;11.052;2022-11-14T02:30:45;26.83;;;18.67;;
14272;SDS011;7220;49.450;11.052;2022-11-14T02:34:45;28.98;;;18.88;;
14272;SDS011;7220;49.450;11.052;2022-11-14T02:38:45;28.73;;;18.05;;
14272;SDS011;7220;49.450;11.052;2022-11-14T02:42:46;25.70;;;18.98;;
14272;SDS011;7220;49.450;11.052;2022-11-14T02:46:46;28.45;;;18.60;;
14272;SDS011;7220;49.450;11.052;2022-11-14T02:50:47;26.70;;;18.52;;
14272;SDS011;7220;49.450;11.052;2022-11-14T02:54:48;25.55;;;19.33;;
14272;SDS011;7220;49.450;11.052;2022-11-14T02:58:48;29.05;;;18.65;;
14272;SDS011;7220;49.450;11.052;2022-11-14T03:02:48;27.50;;;19.38;;
14272;SDS011;7220;49.450;11.052;2022-11-14T03:06:49;26.50;;;19.92;;
14272;SDS011;7220;49.450;11.052;2022-11-14T03:10:49;29.92;;;20.33;;
14272;SDS011;7220;49.450;11.052;2022-11-14T03:14:49;26.73;;;19.20;;
14272;SDS011;7220;49.450;11.052;2022-11-14T03:18:50;25.80;;;18.58;;
14272;SDS011;7220;49.450;11.052;2022-11-14T03:22:50;27.33;;;18.75;;
14272;SDS011;7220;49.450;11.052;2022-11-14T03:26:50;25.30;;;19.10;;
14272;SDS011;7220;49.450;11.052;2022-11-14T03:30:51;28.15;;;18.77;;
14272;SDS011;7220;49.450;11.052;2022-11-14T03:34:51;27.90;;;20.42;;
14272;SDS011;7220;49.450;11.052;2022-11-14T03:38:51;21.85;;;16.38;;
14272;SDS011;7220;49.450;11.052;2022-11-14T03:42:51;23.55;;;17.65;;
14272;SDS011;7220;49.450;11.052;2022-11-14T03:46:52;22.05;;;15.55;;
14272;SDS011;7220;49.450;11.052;2022-11-14T03:50:52;22.00;;;16.70;;
14272;SDS011;7220;49.450;11.052;2022-11-14T03:54:52;20.73;;;16.40;;
14272;SDS011;7220;49.450;11.052;2022-11-14T03:58:53;22.92;;;17.30;;
14272;SDS011;7220;49.450;11.052;2022-11-14T04:02:53;20.45;;;15.15;;
14272;SDS011;7220;49.450;11.052;2022-11-14T04:06:54;21.85;;;15.95;;
14272;SDS011;7220;49.450;11.052;2022-11-14T04:10:55;19.40;;;14.90;;
14272;SDS011;7220;49.450;11.052;2022-11-14T04:14:55;22.40;;;14.38;;
14272;SDS011;7220;49.450;11.052;2022-11-14T04:18:55;20.05;;;14.77;;
14272;SDS011;7220;49.450;11.052;2022-11-14T04:22:56;24.25;;;16.02;;
14272;SDS011;7220;49.450;11.052;2022-11-14T04:26:56;22.80;;;15.80;;
14272;SDS011;7220;49.450;11.052;2022-11-14T04:30:56;18.55;;;14.35;;
14272;SDS011;7220;49.450;11.052;2022-11-14T04:34:56;16.95;;;13.20;;
14272;SDS011;7220;49.450;11.052;2022-11-14T04:38:57;19.13;;;14.30;;
14272;SDS011;7220;49.450;11.052;2022-11-14T04:42:57;17.75;;;14.18;;
14272;SDS011;7220;49.450;11.052;2022-11-14T04:46:57;18.90;;;14.00;;
14272;SDS011;7220;49.450;11.052;2022-11-14T04:50:58;20.48;;;15.02;;
14272;SDS011;7220;49.450;11.052;2022-11-14T04:54:58;19.40;;;13.68;;
14272;SDS011;7220;49.450;11.052;2022-11-14T04:58:58;18.92;;;13.77;;
14272;SDS011;7220;49.450;11.052;2022-11-14T05:02:58;19.23;;;13.65;;
14272;SDS011;7220;49.450;11.052;2022-11-14T05:06:59;16.90;;;13.43;;
14272;SDS011;7220;49.450;11.052;2022-11-14T05:10:59;19.55;;;14.50;;
14272;SDS011;7220;49.450;11.052;2022-11-14T05:14:59;18.95;;;13.73;;
14272;SDS011;7220;49.450;11.052;2022-11-14T05:19:00;19.60;;;13.40;;
14272;SDS011;7220;49.450;11.052;2022-11-14T05:23:00;16.55;;;12.75;;
14272;SDS011;7220;49.450;11.052;2022-11-14T05:27:01;18.40;;;13.05;;
14272;SDS011;7220;49.450;11.052;2022-11-14T05:31:05;22.40;;;13.73;;
14272;SDS011;7220;49.450;11.052;2022-11-14T05:35:11;16.33;;;12.80;;
14272;SDS011;7220;49.450;11.052;2022-11-14T05:39:11;21.55;;;15.07;;
14272;SDS011;7220;49.450;11.052;2022-11-14T05:43:11;21.52;;;15.05;;
14272;SDS011;7220;49.450;11.052;2022-11-14T05:47:12;20.33;;;14.70;;
14272;SDS011;7220;49.450;11.052;2022-11-14T05:51:12;23.77;;;15.55;;
14272;SDS011;7220;49.450;11.052;2022-11-14T05:55:13;21.23;;;13.80;;
14272;SDS011;7220;49.450;11.052;2022-11-14T05:59:13;22.38;;;15.50;;
14272;SDS011;7220;49.450;11.052;2022-11-14T06:03:13;22.02;;;15.75;;
14272;SDS011;7220;49.450;11.052;2022-11-14T06:07:14;23.60;;;15.98;;
14272;SDS011;7220;49.450;11.052;2022-11-14T06:11:17;23.33;;;17.00;;
14272;SDS011;7220;49.450;11.052;2022-11-14T06:15:19;22.80;;;16.08;;
14272;SDS011;7220;49.450;11.052;2022-11-14T06:19:19;24.00;;;16.15;;
14272;SDS011;7220;49.450;11.052;2022-11-14T06:23:20;20.95;;;15.38;;
14272;SDS011;7220;49.450;11.052;2022-11-14T06:27:21;24.33;;;18.02;;
14272;SDS011;7220;49.450;11.052;2022-11-14T06:31:21;28.83;;;17.50;;
14272;SDS011;7220;49.450;11.052;2022-11-14T06:35:22;29.27;;;19.45;;
14272;SDS011;7220;49.450;11.052;2022-11-14T06:39:22;23.75;;;16.17;;
14272;SDS011;7220;49.450;11.052;2022-11-14T06:43:22;22.20;;;16.13;;
14272;SDS011;7220;49.450;11.052;2022-11-14T06:47:23;24.98;;;16.88;;
14272;SDS011;7220;49.450;11.052;2022-11-14T06:51:23;23.50;;;16.77;;
14272;SDS011;7220;49.450;11.052;2022-11-14T06:55:23;24.30;;;15.25;;
14272;SDS011;7220;49.450;11.052;2022-11-14T06:59:24;22.27;;;15.57;;
14272;SDS011;7220;49.450;11.052;2022-11-14T07:03:24;19.25;;;14.85;;
14272;SDS011;7220;49.450;11.052;2022-11-14T07:07:25;20.80;;;15.67;;
14272;SDS011;7220;49.450;11.052;2022-11-14T07:11:26;20.60;;;14.50;;
14272;SDS011;7220;49.450;11.052;2022-11-14T07:15:28;21.58;;;15.30;;
14272;SDS011;7220;49.450;11.052;2022-11-14T07:19:29;19.92;;;14.80;;
14272;SDS011;7220;49.450;11.052;2022-11-14T07:23:29;20.35;;;14.32;;
14272;SDS011;7220;49.450;11.052;2022-11-14T07:27:31;21.17;;;14.98;;
14272;SDS011;7220;49.450;11.052;2022-11-14T07:31:31;20.48;;;15.07;;
14272;SDS011;7220;49.450;11.052;2022-11-14T07:35:31;23.85;;;15.10;;
14272;SDS011;7220;49.450;11.052;2022-11-14T07:39:32;20.88;;;15.23;;
14272;SDS011;7220;49.450;11.052;2022-11-14T07:43:32;22.35;;;17.20;;
14272;SDS011;7220;49.450;11.052;2022-11-14T07:47:32;24.48;;;16.08;;
14272;SDS011;7220;49.450;11.052;2022-11-14T07:51:33;21.70;;;15.45;;
14272;SDS011;7220;49.450;11.052;2022-11-14T07:55:37;22.20;;;15.10;;
14272;SDS011;7220;49.450;11.052;2022-11-14T07:59:37;22.10;;;16.00;;
14272;SDS011;7220;49.450;11.052;2022-11-14T08:03:38;25.27;;;16.52;;
14272;SDS011;7220;49.450;11.052;2022-11-14T08:07:38;22.88;;;16.60;;
14272;SDS011;7220;49.450;11.052;2022-11-14T08:11:38;19.70;;;14.20;;
14272;SDS011;7220;49.450;11.052;2022-11-14T08:15:48;18.63;;;14.55;;
14272;SDS011;7220;49.450;11.052;2022-11-14T08:19:48;19.35;;;15.00;;
14272;SDS011;7220;49.450;11.052;2022-11-14T08:23:48;19.13;;;14.15;;
14272;SDS011;7220;49.450;11.052;2022-11-14T08:27:48;19.42;;;13.82;;
14272;SDS011;7220;49.450;11.052;2022-11-14T08:31:49;17.55;;;14.45;;
14272;SDS011;7220;49.450;11.052;2022-11-14T08:35:49;19.02;;;13.68;;
14272;SDS011;7220;49.450;11.052;2022-11-14T08:39:49;17.42;;;13.98;;
14272;SDS011;7220;49.450;11.052;2022-11-14T08:43:50;17.92;;;13.65;;
14272;SDS011;7220;49.450;11.052;2022-11-14T08:47:51;17.70;;;12.70;;
14272;SDS011;7220;49.450;11.052;2022-11-14T08:51:52;20.00;;;13.48;;
14272;SDS011;7220;49.450;11.052;2022-11-14T08:55:52;17.92;;;12.95;;
14272;SDS011;7220;49.450;11.052;2022-11-14T08:59:53;17.43;;;12.57;;
14272;SDS011;7220;49.450;11.052;2022-11-14T09:03:54;15.65;;;12.63;;
14272;SDS011;7220;49.450;11.052;2022-11-14T09:07:54;18.48;;;12.98;;
14272;SDS011;7220;49.450;11.052;2022-11-14T09:11:55;17.02;;;13.35;;
14272;SDS011;7220;49.450;11.052;2022-11-14T09:15:55;18.17;;;13.75;;
14272;SDS011;7220;49.450;11.052;2022-11-14T09:19:56;17.48;;;13.10;;
14272;SDS011;7220;49.450;11.052;2022-11-14T09:23:56;16.80;;;12.52;;
14272;SDS011;7220;49.450;11.052;2022-11-14T09:27:56;15.98;;;12.68;;
14272;SDS011;7220;49.450;11.052;2022-11-14T09:31:57;16.60;;;13.18;;
14272;SDS011;7220;49.450;11.052;2022-11-14T09:35:59;17.17;;;13.27;;
14272;SDS011;7220;49.450;11.052;2022-11-14T09:40:00;16.73;;;13.45;;
14272;SDS011;7220;49.450;11.052;2022-11-14T09:48:28;14.30;;;12.02;;
14272;SDS011;7220;49.450;11.052;2022-11-14T09:52:43;15.27;;;11.60;;
14272;SDS011;7220;49.450;11.052;2022-11-14T09:56:48;14.32;;;12.80;;
14272;SDS011;7220;49.450;11.052;2022-11-14T10:05:15;17.30;;;11.88;;
14272;SDS011;7220;49.450;11.052;2022-11-14T10:09:24;12.38;;;10.73;;
14272;SDS011;7220;49.450;11.052;2022-11-14T10:26:41;11.45;;;9.77;;
14272;SDS011;7220;49.450;11.052;2022-11-14T10:35:11;11.13;;;9.45;;
14272;SDS011;7220;49.450;11.052;2022-11-14T10:39:15;10.88;;;9.18;;
14272;SDS011;7220;49.450;11.052;2022-11-14T10:43:25;10.57;;;8.82;;
14272;SDS011;7220;49.450;11.052;2022-11-14T10:47:35;9.27;;;7.95;;
14272;SDS011;7220;49.450;11.052;2022-11-14T10:51:43;8.75;;;7.50;;
14272;SDS011;7220;49.450;11.052;2022-11-14T10:55:48;8.35;;;7.32;;
14272;SDS011;7220;49.450;11.052;2022-11-14T10:59:50;8.32;;;7.20;;
14272;SDS011;7220;49.450;11.052;2022-11-14T11:03:52;8.30;;;6.78;;
14272;SDS011;7220;49.450;11.052;2022-11-14T11:07:52;7.63;;;6.50;;
14272;SDS011;7220;49.450;11.052;2022-11-14T14:59:21;6.53;;;3.30;;
14272;SDS011;7220;49.450;11.052;2022-11-14T19:13:23;11.30;;;9.38;;
14272;SDS011;7220;49.450;11.052;2022-11-14T19:17:23;11.35;;;9.90;;
14272;SDS011;7220;49.450;11.052;2022-11-14T19:21:24;11.23;;;9.63;;
14272;SDS011;7220;49.450;11.052;2022-11-14T19:25:24;10.00;;;8.70;;
14272;SDS011;7220;49.450;11.052;2022-11-14T19:29:24;12.95;;;10.52;;
14272;SDS011;7220;49.450;11.052;2022-11-14T19:33:25;13.65;;;11.50;;
14272;SDS011;7220;49.450;11.052;2022-11-14T19:37:25;11.27;;;9.63;;
14272;SDS011;7220;49.450;11.052;2022-11-14T19:41:26;13.17;;;9.97;;
14272;SDS011;7220;49.450;11.052;2022-11-14T19:45:28;11.73;;;8.93;;
14272;SDS011;7220;49.450;11.052;2022-11-14T19:49:32;11.32;;;8.23;;
14272;SDS011;7220;49.450;11.052;2022-11-14T19:53:33;11.52;;;8.13;;
14272;SDS011;7220;49.450;11.052;2022-11-14T19:57:34;9.45;;;8.38;;
14272;SDS011;7220;49.450;11.052;2022-11-14T20:01:35;10.63;;;8.48;;
14272;SDS011;7220;49.450;11.052;2022-11-14T20:05:35;12.07;;;8.68;;
14272;SDS011;7220;49.450;11.052;2022-11-14T20:09:37;11.23;;;9.75;;
14272;SDS011;7220;49.450;11.052;2022-11-14T20:13:38;11.68;;;8.60;;
14272;SDS011;7220;49.450;11.052;2022-11-14T20:17:41;10.90;;;9.15;;
14272;SDS011;7220;49.450;11.052;2022-11-14T20:21:41;12.68;;;8.38;;
14272;SDS011;7220;49.450;11.052;2022-11-14T20:25:42;9.57;;;8.57;;
14272;SDS011;7220;49.450;11.052;2022-11-14T20:29:42;11.95;;;8.68;;
14272;SDS011;7220;49.450;11.052;2022-11-14T20:33:44;9.02;;;7.80;;
14272;SDS011;7220;49.450;11.052;2022-11-14T20:37:45;8.70;;;7.20;;
14272;SDS011;7220;49.450;11.052;2022-11-14T20:41:46;9.18;;;7.45;;
14272;SDS011;7220;49.450;11.052;2022-11-14T20:45:54;11.95;;;7.57;;
14272;SDS011;7220;49.450;11.052;2022-11-14T20:50:01;10.57;;;8.07;;
14272;SDS011;7220;49.450;11.052;2022-11-14T20:54:02;8.63;;;7.72;;
14272;SDS011;7220;49.450;11.052;2022-11-14T20:58:02;9.07;;;6.95;;
14272;SDS011;7220;49.450;11.052;2022-11-14T21:02:03;10.98;;;8.32;;
14272;SDS011;7220;49.450;11.052;2022-11-14T21:06:03;9.63;;;8.13;;
14272;SDS011;7220;49.450;11.052;2022-11-14T21:10:06;9.35;;;7.60;;
14272;SDS011;7220;49.450;11.052;2022-11-14T21:14:24;9.13;;;7.68;;
14272;SDS011;7220;49.450;11.052;2022-11-14T21:18:25;11.00;;;7.83;;
14272;SDS011;7220;49.450;11.052;2022-11-14T21:22:25;10.63;;;6.90;;
14272;SDS011;7220;49.450;11.052;2022-11-14T21:26:27;9.52;;;7.30;;
14272;SDS011;7220;49.450;11.052;2022-11-14T21:30:32;8.88;;;7.45;;
14272;SDS011;7220;49.450;11.052;2022-11-14T21:34:33;9.98;;;7.57;;
14272;SDS011;7220;49.450;11.052;2022-11-14T21:38:33;10.43;;;6.50;;
14272;SDS011;7220;49.450;11.052;2022-11-14T21:42:34;8.35;;;6.68;;
14272;SDS011;7220;49.450;11.052;2022-11-14T21:46:34;7.82;;;6.32;;
14272;SDS011;7220;49.450;11.052;2022-11-14T21:50:34;9.32;;;5.65;;
14272;SDS011;7220;49.450;11.052;2022-11-14T21:54:34;7.05;;;6.03;;
14272;SDS011;7220;49.450;11.052;2022-11-14T21:58:36;9.35;;;6.20;;
14272;SDS011;7220;49.450;11.052;2022-11-14T22:02:36;8.82;;;6.30;;
14272;SDS011;7220;49.450;11.052;2022-11-14T22:06:55;10.48;;;7.00;;
14272;SDS011;7220;49.450;11.052;2022-11-14T22:10:59;8.85;;;7.00;;
14272;SDS011;7220;49.450;11.052;2022-11-14T22:15:01;7.13;;;6.18;;
14272;SDS011;7220;49.450;11.052;2022-11-14T22:19:01;9.30;;;6.88;;
14272;SDS011;7220;49.450;11.052;2022-11-14T22:23:01;14.38;;;9.80;;
14272;SDS011;7220;49.450;11.052;2022-11-14T22:27:02;11.48;;;8.07;;
14272;SDS011;7220;49.450;11.052;2022-11-14T22:31:06;7.90;;;6.22;;
14272;SDS011;7220;49.450;11.052;2022-11-14T22:35:11;7.82;;;6.88;;
14272;SDS011;7220;49.450;11.052;2022-11-14T22:39:11;7.68;;;6.88;;
14272;SDS011;7220;49.450;11.052;2022-11-14T22:43:12;9.00;;;6.85;;
14272;SDS011;7220;49.450;11.052;2022-11-14T22:47:12;7.03;;;6.33;;
14272;SDS011;7220;49.450;11.052;2022-11-14T22:51:13;7.63;;;6.83;;
14272;SDS011;7220;49.450;11.052;2022-11-14T22:55:18;7.80;;;7.00;;
14272;SDS011;7220;49.450;11.052;2022-11-14T22:59:18;6.93;;;6.10;;
14272;SDS011;7220;49.450;11.052;2022-11-14T23:03:18;7.70;;;6.97;;
14272;SDS011;7220;49.450;11.052;2022-11-14T23:07:19;7.97;;;6.97;;
14272;SDS011;7220;49.450;11.052;2022-11-14T23:11:21;8.02;;;6.15;;
14272;SDS011;7220;49.450;11.052;2022-11-14T23:15:23;8.57;;;7.03;;
14272;SDS011;7220;49.450;11.052;2022-11-14T23:19:24;8.35;;;7.07;;
14272;SDS011;7220;49.450;11.052;2022-11-14T23:23:24;8.63;;;7.10;;
14272;SDS011;7220;49.450;11.052;2022-11-14T23:27:24;9.15;;;6.68;;
14272;SDS011;7220;49.450;11.052;2022-11-14T23:31:25;7.75;;;6.95;;
14272;SDS011;7220;49.450;11.052;2022-11-14T23:35:25;9.82;;;6.82;;
14272;SDS011;7220;49.450;11.052;2022-11-14T23:39:25;9.23;;;7.00;;
14272;SDS011;7220;49.450;11.052;2022-11-14T23:43:26;8.50;;;7.10;;
14272;SDS011;7220;49.450;11.052;2022-11-14T23:47:28;11.13;;;8.00;;
14272;SDS011;7220;49.450;11.052;2022-11-14T23:51:28;8.73;;;7.80;;
14272;SDS011;7220;49.450;11.052;2022-11-14T23:55:28;9.40;;;7.88;;
14272;SDS011;7220;49.450;11.052;2022-11-14T23:59:29;8.13;;;7.32;;
